Terminal Aerodrome Forecast
Issued by NWS

Home | Current Version | Previous Version | Text Only | Print | Product List | Glossary On
Versions: 1 2 3 4 5 6 7 8 9 10 11 12
000
FTUS46 KPDT 161700
TAFALW
TAF
KALW 161733Z 1618/1718 24008KT P6SM FEW220
     FM162200 24008KT P6SM SKC
     FM170300 14007KT P6SM FEW150 SCT250
     FM171000 14006KT P6SM FEW100 OVC130=

USA.gov is the U.S. government's official web portal to all federal, state and local government web resources and services.